Time;durP1;ratioP1;P1;durP2;ratioP2;P2;SDS_P1;SDS_P2;PMS_P1;PMS_P2;Temp;Humidity;BMP_temperature;BMP_pressure;BME280_temperature;BME280_humidity;BME280_pressure;Samples;Min_cycle;Max_cycle;Signal;HPM_P1;HPM_P2
2021/06/04 00:01:38;;;;;;;15.50;13.30;;;21.40;93.10;;;;;;5051938;28;20025;-86
2021/06/04 00:04:05;;;;;;;14.88;13.32;;;21.30;93.10;;;;;;5084046;28;20086;-86
2021/06/04 00:06:31;;;;;;;15.02;12.77;;;21.30;93.10;;;;;;5069101;28;20047;-86
2021/06/04 00:08:56;;;;;;;16.35;13.35;;;21.30;93.10;;;;;;5052802;28;20457;-86
2021/06/04 00:11:32;;;;;;;15.25;13.73;;;21.20;93.10;;;;;;5053339;28;20021;-87
2021/06/04 00:14:06;;;;;;;15.85;14.15;;;21.30;93.20;;;;;;5070861;28;20048;-86
2021/06/04 00:16:39;;;;;;;15.88;14.25;;;21.20;93.20;;;;;;5069867;28;20384;-86
2021/06/04 00:19:09;;;;;;;15.65;14.02;;;21.20;93.20;;;;;;5052923;28;20048;-86
2021/06/04 00:21:43;;;;;;;16.97;13.73;;;21.20;93.20;;;;;;5053318;28;20032;-87
2021/06/04 00:24:09;;;;;;;17.35;13.70;;;21.20;93.20;;;;;;5072454;28;20491;-87
2021/06/04 00:26:38;;;;;;;16.02;14.32;;;21.10;93.20;;;;;;5086404;28;20056;-87
2021/06/04 00:29:04;;;;;;;16.25;14.55;;;21.10;93.20;;;;;;5069334;28;20094;-87
2021/06/04 00:31:30;;;;;;;16.05;14.30;;;21.10;93.30;;;;;;5070726;28;20029;-86
2021/06/04 00:33:56;;;;;;;15.82;13.98;;;21.10;93.30;;;;;;5052813;28;20013;-87
2021/06/04 00:36:24;;;;;;;15.23;13.10;;;21.10;93.30;;;;;;5069763;28;20476;-87
2021/06/04 00:38:50;;;;;;;17.00;14.90;;;21.10;93.30;;;;;;5069728;28;20020;-87
2021/06/04 00:41:28;;;;;;;15.80;14.05;;;21.10;93.40;;;;;;5069674;28;20381;-87
2021/06/04 00:43:54;;;;;;;15.60;13.90;;;21.00;93.40;;;;;;5073572;28;20013;-87
2021/06/04 00:46:21;;;;;;;15.00;13.40;;;21.00;93.50;;;;;;5069503;28;20032;-86
2021/06/04 00:48:48;;;;;;;15.10;13.60;;;21.00;93.50;;;;;;5066217;28;20025;-87
2021/06/04 00:51:17;;;;;;;15.15;13.65;;;21.00;93.50;;;;;;5061419;28;20078;-86
2021/06/04 00:53:43;;;;;;;15.82;14.10;;;21.00;93.60;;;;;;5069243;28;20017;-86
2021/06/04 00:56:10;;;;;;;16.25;14.52;;;21.00;93.60;;;;;;5070454;28;20384;-86
2021/06/04 00:58:41;;;;;;;16.27;14.43;;;21.00;93.90;;;;;;5069338;28;20116;-87
2021/06/04 01:01:09;;;;;;;16.70;14.95;;;21.00;93.60;;;;;;5069491;28;20031;-86
2021/06/04 01:03:38;;;;;;;17.08;15.27;;;21.00;93.60;;;;;;5040364;28;20025;-86
2021/06/04 01:06:12;;;;;;;17.38;14.60;;;21.00;93.60;;;;;;5072790;28;20540;-86
2021/06/04 01:08:48;;;;;;;17.25;15.18;;;20.90;93.60;;;;;;5072838;28;20029;-87
2021/06/04 01:11:41;;;;;;;18.08;16.25;;;20.90;93.60;;;;;;5072905;28;20082;-87
2021/06/04 01:14:39;;;;;;;18.48;16.42;;;20.90;93.70;;;;;;5073850;28;20029;-86
2021/06/04 01:17:19;;;;;;;20.33;17.90;;;20.90;93.70;;;;;;5073858;28;20824;-86
2021/06/04 01:20:12;;;;;;;22.08;17.85;;;20.90;93.70;;;;;;5065923;28;20481;-86
2021/06/04 01:23:01;;;;;;;20.98;18.77;;;20.80;93.70;;;;;;5072477;28;20468;-87
2021/06/04 01:25:53;;;;;;;20.50;17.95;;;20.80;93.70;;;;;;5072272;28;20457;-87
2021/06/04 01:28:26;;;;;;;21.10;18.42;;;20.70;93.70;;;;;;5073539;28;20041;-87
2021/06/04 01:31:07;;;;;;;20.92;17.58;;;20.70;93.70;;;;;;5073889;28;20112;-87
2021/06/04 01:33:48;;;;;;;22.48;19.50;;;20.70;93.70;;;;;;5080612;28;20104;-86
2021/06/04 01:36:19;;;;;;;22.58;20.15;;;20.70;93.70;;;;;;5087552;28;20032;-87
2021/06/04 01:38:48;;;;;;;22.40;20.00;;;20.70;93.80;;;;;;5076273;28;20023;-86
2021/06/04 01:41:16;;;;;;;25.88;20.65;;;20.70;93.80;;;;;;5072628;28;20113;-86
2021/06/04 01:43:48;;;;;;;21.73;19.50;;;20.70;93.80;;;;;;5067886;28;20028;-87
2021/06/04 01:46:22;;;;;;;23.65;19.98;;;20.60;93.80;;;;;;5075446;28;20032;-86
2021/06/04 01:48:50;;;;;;;25.73;21.35;;;20.60;93.80;;;;;;5075826;28;20032;-86
2021/06/04 01:51:24;;;;;;;25.15;20.92;;;20.60;93.80;;;;;;5072051;28;20024;-86
2021/06/04 01:53:58;;;;;;;26.63;21.80;;;20.60;93.80;;;;;;5075672;28;20070;-86
2021/06/04 01:56:36;;;;;;;23.77;20.90;;;20.50;93.80;;;;;;5075268;28;20047;-86
2021/06/04 01:59:11;;;;;;;25.90;21.48;;;20.50;93.80;;;;;;5071803;28;20401;-86
2021/06/04 02:01:42;;;;;;;25.05;20.60;;;20.50;93.70;;;;;;5076303;28;20058;-86
2021/06/04 02:04:11;;;;;;;23.40;20.90;;;20.50;93.80;;;;;;5075271;28;20027;-86
2021/06/04 02:06:37;;;;;;;23.02;20.23;;;20.40;93.70;;;;;;5089177;28;20508;-87
2021/06/04 02:09:08;;;;;;;24.70;21.30;;;20.40;93.70;;;;;;5071916;28;20070;-87
2021/06/04 02:11:34;;;;;;;24.35;21.52;;;20.40;93.80;;;;;;5071339;28;20029;-86
2021/06/04 02:14:04;;;;;;;26.08;21.73;;;20.40;93.80;;;;;;5075125;28;20101;-86
2021/06/04 02:17:13;;;;;;;26.15;22.73;;;20.30;93.70;;;;;;5070040;28;20071;-86
2021/06/04 02:20:17;;;;;;;27.13;22.35;;;20.30;93.70;;;;;;5064547;28;20547;-86
2021/06/04 02:22:46;;;;;;;28.60;22.80;;;20.30;93.70;;;;;;5053844;28;20500;-86
2021/06/04 02:25:37;;;;;;;26.30;22.13;;;20.20;93.70;;;;;;5074497;28;20024;-87
2021/06/04 02:28:19;;;;;;;26.00;22.02;;;20.20;93.70;;;;;;5080307;28;20040;-86
2021/06/04 02:30:56;;;;;;;26.13;21.98;;;20.20;93.70;;;;;;5073014;28;20070;-87
2021/06/04 02:33:26;;;;;;;28.08;23.23;;;20.10;93.70;;;;;;5071261;28;20024;-86
2021/06/04 02:36:21;;;;;;;27.83;23.90;;;20.10;93.70;;;;;;5072820;28;20502;-86
2021/06/04 02:38:47;;;;;;;28.80;24.05;;;20.10;93.80;;;;;;5071258;28;20039;-87
2021/06/04 02:41:27;;;;;;;28.58;24.70;;;20.00;93.80;;;;;;5070969;28;20029;-87
2021/06/04 02:43:57;;;;;;;29.55;24.30;;;20.00;93.70;;;;;;5072513;28;20028;-87
2021/06/04 02:46:28;;;;;;;30.80;25.15;;;20.00;93.70;;;;;;5074501;28;20040;-87
2021/06/04 02:48:54;;;;;;;;;;;20.00;93.80;;;;;;5077844;28;20017;-87
2021/06/04 02:51:31;;;;;;;29.33;24.40;;;19.90;93.90;;;;;;5072206;28;20273;-87
2021/06/04 02:54:17;;;;;;;27.75;23.60;;;19.90;93.90;;;;;;5054442;28;20027;-86
2021/06/04 02:56:51;;;;;;;30.40;24.55;;;19.90;93.80;;;;;;5072294;28;20024;-86
2021/06/04 02:59:24;;;;;;;30.92;25.65;;;19.90;93.90;;;;;;5072864;28;20031;-87
2021/06/04 03:01:56;;;;;;;29.83;24.45;;;19.80;93.90;;;;;;5071083;28;20021;-86
2021/06/04 03:04:23;;;;;;;32.35;25.25;;;19.80;93.90;;;;;;5054029;28;20029;-87
2021/06/04 03:06:54;;;;;;;32.70;25.48;;;19.80;93.90;;;;;;5054476;28;20050;-86
2021/06/04 03:09:25;;;;;;;29.60;25.20;;;19.70;93.90;;;;;;5053819;28;20075;-86
2021/06/04 03:11:54;;;;;;;32.47;26.75;;;19.70;93.90;;;;;;5074122;28;20012;-86
2021/06/04 03:14:20;;;;;;;31.38;25.73;;;19.70;93.80;;;;;;5073962;28;20020;-86
2021/06/04 03:16:48;;;;;;;31.67;25.30;;;19.70;93.80;;;;;;5070837;28;20123;-87
2021/06/04 03:19:16;;;;;;;32.67;25.30;;;19.70;93.80;;;;;;5070549;28;20024;-86
2021/06/04 03:22:07;;;;;;;31.88;25.83;;;19.70;93.80;;;;;;5070461;28;20036;-86
2021/06/04 03:24:35;;;;;;;29.45;24.52;;;19.60;93.80;;;;;;5070369;28;20527;-87
2021/06/04 03:27:03;;;;;;;30.20;25.73;;;19.60;93.80;;;;;;5070395;28;20091;-87
2021/06/04 03:29:29;;;;;;;34.15;26.48;;;19.60;93.90;;;;;;5081175;28;20035;-86
2021/06/04 03:31:59;;;;;;;31.90;25.58;;;19.60;93.90;;;;;;5057408;28;20027;-87
2021/06/04 03:34:26;;;;;;;33.10;26.42;;;19.50;93.90;;;;;;5070094;28;20074;-87
2021/06/04 03:36:54;;;;;;;33.63;27.05;;;19.50;93.90;;;;;;5053553;28;20012;-87
2021/06/04 03:39:24;;;;;;;31.13;25.88;;;19.50;94.00;;;;;;5071497;28;20099;-86
2021/06/04 03:41:52;;;;;;;30.88;25.42;;;19.50;94.00;;;;;;5071798;28;20024;-87
2021/06/04 03:44:21;;;;;;;33.85;26.90;;;19.50;94.00;;;;;;5053265;28;20464;-87
2021/06/04 03:46:47;;;;;;;29.63;24.45;;;19.40;94.00;;;;;;5082474;28;20027;-87
2021/06/04 03:49:16;;;;;;;32.97;25.60;;;19.50;94.00;;;;;;5070065;28;20025;-87
2021/06/04 03:51:43;;;;;;;31.23;25.38;;;19.40;94.10;;;;;;5071836;28;20457;-87
2021/06/04 03:54:13;;;;;;;31.27;24.42;;;19.40;94.10;;;;;;5082799;28;20480;-87
2021/06/04 03:56:40;;;;;;;31.58;24.27;;;19.40;93.90;;;;;;5080445;28;20085;-86
2021/06/04 03:59:07;;;;;;;32.10;25.75;;;19.40;93.90;;;;;;5056099;28;20028;-87
2021/06/04 04:01:40;;;;;;;30.35;25.23;;;19.30;94.10;;;;;;5054077;28;20025;-87
2021/06/04 04:04:06;;;;;;;31.73;24.38;;;19.30;94.10;;;;;;5073357;28;20016;-87
2021/06/04 04:06:33;;;;;;;30.27;24.95;;;19.30;94.20;;;;;;5071673;28;20119;-87
2021/06/04 04:08:59;;;;;;;28.98;23.85;;;19.30;94.20;;;;;;5070196;28;20472;-87
2021/06/04 04:11:24;;;;;;;27.63;22.10;;;19.30;94.30;;;;;;5050134;28;20036;-88
2021/06/04 04:13:50;;;;;;;26.85;21.50;;;19.20;94.30;;;;;;5056948;28;20057;-87
2021/06/04 04:16:16;;;;;;;24.25;20.83;;;19.20;94.30;;;;;;5039690;28;20043;-87
2021/06/04 04:18:42;;;;;;;25.85;20.75;;;19.20;94.30;;;;;;5070089;28;20024;-87
2021/06/04 04:21:12;;;;;;;25.13;20.38;;;19.20;94.30;;;;;;5070106;28;20090;-86
2021/06/04 04:23:39;;;;;;;22.63;19.40;;;19.20;94.30;;;;;;5078818;28;20027;-87
2021/06/04 04:26:07;;;;;;;25.40;20.52;;;19.20;94.30;;;;;;5078447;28;20519;-87
2021/06/04 04:28:36;;;;;;;27.02;22.33;;;19.20;94.30;;;;;;5070210;28;20480;-87
2021/06/04 04:31:05;;;;;;;26.27;20.88;;;19.20;94.30;;;;;;5069632;28;20115;-87
2021/06/04 04:33:31;;;;;;;26.48;21.63;;;19.10;94.30;;;;;;5071153;28;20033;-87
2021/06/04 04:35:57;;;;;;;26.77;21.98;;;19.10;94.40;;;;;;5069897;28;20020;-87
2021/06/04 04:38:24;;;;;;;26.08;22.00;;;19.10;94.40;;;;;;5049955;28;20385;-87
2021/06/04 04:40:59;;;;;;;27.63;23.00;;;19.10;94.50;;;;;;5069620;28;20032;-87
2021/06/04 04:43:26;;;;;;;28.60;23.65;;;19.10;94.60;;;;;;5074609;28;20596;-87
2021/06/04 04:45:53;;;;;;;26.58;22.40;;;19.10;94.60;;;;;;5073519;28;20021;-87
2021/06/04 04:48:18;;;;;;;25.65;21.60;;;19.10;94.70;;;;;;5057012;28;20459;-87
2021/06/04 04:50:44;;;;;;;25.65;22.73;;;19.10;94.70;;;;;;5073516;28;20048;-87
2021/06/04 04:53:10;;;;;;;25.20;22.00;;;19.10;94.70;;;;;;5073807;28;20040;-88
2021/06/04 04:55:39;;;;;;;25.73;22.38;;;19.10;94.70;;;;;;5039992;28;20020;-87
2021/06/04 04:58:06;;;;;;;26.20;22.30;;;19.10;94.70;;;;;;5074633;28;20118;-86
2021/06/04 05:00:32;;;;;;;25.73;22.48;;;19.10;94.80;;;;;;5072569;28;20025;-86
2021/06/04 05:02:59;;;;;;;26.08;22.45;;;19.10;94.80;;;;;;5031649;28;20025;-87
2021/06/04 05:05:28;;;;;;;26.92;20.85;;;19.10;94.80;;;;;;5056629;28;20029;-88
2021/06/04 05:07:54;;;;;;;25.25;20.08;;;19.10;94.90;;;;;;5067344;28;20108;-88
2021/06/04 05:10:20;;;;;;;24.55;21.15;;;19.10;95.00;;;;;;5036373;28;20819;-88
2021/06/04 05:12:46;;;;;;;24.58;21.30;;;19.10;95.00;;;;;;5048597;28;20029;-88
2021/06/04 05:15:17;;;;;;;23.33;20.13;;;19.10;95.00;;;;;;5071186;28;20100;-88
2021/06/04 05:17:43;;;;;;;25.38;21.40;;;19.20;95.10;;;;;;5064757;28;20460;-89
2021/06/04 05:20:11;;;;;;;26.10;22.40;;;19.20;95.10;;;;;;5078696;28;20108;-85
2021/06/04 05:22:38;;;;;;;27.50;22.35;;;19.20;95.10;;;;;;5041112;28;20079;-89
2021/06/04 05:25:10;;;;;;;28.20;22.75;;;19.20;95.10;;;;;;5056496;28;20036;-88
2021/06/04 05:27:37;;;;;;;26.33;23.35;;;19.20;95.10;;;;;;5073070;28;20052;-89
2021/06/04 05:30:16;;;;;;;27.33;23.10;;;19.30;95.20;;;;;;5085095;28;20033;-89
2021/06/04 05:32:42;;;;;;;27.90;22.48;;;19.30;95.30;;;;;;5055278;28;20021;-88
2021/06/04 05:35:09;;;;;;;27.23;23.05;;;19.30;95.60;;;;;;5021010;28;20036;-89
2021/06/04 05:37:36;;;;;;;26.13;22.02;;;19.30;95.40;;;;;;5072365;28;20021;-89
2021/06/04 05:40:06;;;;;;;25.30;21.10;;;19.30;95.40;;;;;;5067747;28;20033;-92
2021/06/04 05:42:32;;;;;;;23.75;20.40;;;19.40;95.40;;;;;;5074987;28;20536;-94
2021/06/04 05:44:58;;;;;;;24.85;21.00;;;19.40;95.50;;;;;;5043987;28;20194;-93
2021/06/04 05:47:24;;;;;;;27.05;21.50;;;19.40;95.50;;;;;;5075574;28;20440;-92
2021/06/04 05:49:50;;;;;;;24.63;19.85;;;19.50;95.50;;;;;;5057355;28;20035;-92
2021/06/04 05:52:16;;;;;;;21.60;19.17;;;19.50;95.60;;;;;;5073820;28;20025;-91
2021/06/04 05:54:44;;;;;;;24.10;19.70;;;19.50;95.60;;;;;;5074047;28;20424;-91
2021/06/04 05:57:11;;;;;;;23.00;19.60;;;19.50;95.60;;;;;;5068907;28;20033;-92
2021/06/04 05:59:36;;;;;;;25.20;19.73;;;19.60;95.70;;;;;;5056604;28;20025;-92
2021/06/04 06:02:03;;;;;;;25.65;20.38;;;19.60;95.70;;;;;;5069800;28;20111;-92
2021/06/04 06:04:28;;;;;;;25.55;21.33;;;19.60;95.70;;;;;;5065432;28;20039;-91
2021/06/04 06:06:54;;;;;;;27.73;21.17;;;19.60;95.60;;;;;;5073992;28;20017;-91
2021/06/04 06:09:21;;;;;;;26.27;21.25;;;19.60;95.60;;;;;;5070858;28;20036;-91
2021/06/04 06:11:48;;;;;;;24.33;21.40;;;19.60;95.60;;;;;;5069290;28;20487;-92
2021/06/04 06:14:15;;;;;;;27.48;22.15;;;19.70;95.70;;;;;;5068409;28;20017;-91
2021/06/04 06:16:42;;;;;;;30.23;22.48;;;19.70;95.60;;;;;;5070062;28;20012;-92
2021/06/04 06:19:09;;;;;;;27.00;21.55;;;19.70;95.60;;;;;;5046286;28;20029;-91
2021/06/04 06:21:36;;;;;;;27.00;21.65;;;19.70;95.50;;;;;;5072056;28;20360;-91
2021/06/04 06:24:03;;;;;;;26.58;20.63;;;19.80;95.60;;;;;;5072862;28;20039;-92
2021/06/04 06:26:31;;;;;;;24.33;20.85;;;19.80;95.60;;;;;;5063137;28;20075;-93
2021/06/04 06:28:59;;;;;;;24.55;20.65;;;19.90;95.60;;;;;;5084230;28;20021;-93
2021/06/04 06:31:32;;;;;;;23.20;19.42;;;19.90;95.90;;;;;;5064597;28;20376;-92
2021/06/04 06:33:59;;;;;;;21.90;19.52;;;19.90;95.70;;;;;;5053145;28;20016;-91
2021/06/04 06:36:33;;;;;;;22.23;18.20;;;19.90;95.70;;;;;;5070118;28;20025;-93
2021/06/04 06:39:02;;;;;;;21.48;18.30;;;19.90;95.70;;;;;;5053102;28;20016;-92
2021/06/04 06:41:28;;;;;;;22.05;18.13;;;20.00;95.80;;;;;;5089175;28;20044;-91
2021/06/04 06:43:54;;;;;;;22.38;18.63;;;20.00;95.80;;;;;;5056401;28;20024;-91
2021/06/04 06:46:23;;;;;;;23.95;18.38;;;20.10;95.80;;;;;;5071363;28;20571;-92
2021/06/04 06:48:49;;;;;;;21.38;17.98;;;20.10;95.70;;;;;;5055597;28;20071;-89
2021/06/04 06:51:14;;;;;;;22.23;18.33;;;20.10;95.70;;;;;;5070159;28;20063;-89
2021/06/04 06:53:41;;;;;;;22.45;18.13;;;20.10;95.70;;;;;;5086551;28;20098;-89
2021/06/04 06:56:09;;;;;;;19.77;16.92;;;20.20;95.70;;;;;;5053446;28;20036;-88
2021/06/04 06:58:36;;;;;;;20.83;16.90;;;20.20;95.70;;;;;;5078239;28;20155;-89
2021/06/04 07:01:04;;;;;;;20.95;15.10;;;20.30;95.70;;;;;;5070952;28;20044;-89
2021/06/04 07:03:33;;;;;;;17.88;14.90;;;20.30;95.60;;;;;;5071519;28;20055;-88
2021/06/04 07:06:01;;;;;;;17.70;14.95;;;20.30;95.60;;;;;;5072143;28;20099;-88
2021/06/04 07:08:27;;;;;;;18.60;15.07;;;20.40;95.60;;;;;;5066900;28;20029;-89
2021/06/04 07:10:53;;;;;;;19.33;16.02;;;20.50;95.50;;;;;;5063503;28;20028;-88
2021/06/04 07:13:25;;;;;;;22.05;17.00;;;20.50;95.20;;;;;;5054023;28;20033;-88
2021/06/04 07:15:52;;;;;;;21.48;15.75;;;20.50;95.20;;;;;;5072054;28;20039;-87
2021/06/04 07:18:18;;;;;;;20.38;15.68;;;20.60;95.10;;;;;;5070293;28;20038;-87
2021/06/04 07:20:44;;;;;;;21.17;15.90;;;20.60;94.90;;;;;;5071249;28;20054;-87
2021/06/04 07:23:11;;;;;;;20.67;15.48;;;20.70;94.70;;;;;;5053658;28;20078;-87
2021/06/04 07:25:41;;;;;;;23.67;16.67;;;20.70;94.70;;;;;;5071249;28;20040;-87
2021/06/04 07:28:08;;;;;;;18.77;15.32;;;20.80;94.60;;;;;;5081394;28;20044;-86
2021/06/04 07:30:39;;;;;;;20.67;15.73;;;20.80;94.50;;;;;;5069766;28;20021;-87
2021/06/04 07:33:10;;;;;;;19.58;14.60;;;20.90;94.60;;;;;;5053867;28;20020;-86
2021/06/04 07:35:37;;;;;;;20.80;16.65;;;21.00;94.70;;;;;;5065350;28;20459;-87
2021/06/04 07:38:04;;;;;;;20.60;16.45;;;21.00;94.60;;;;;;5066880;28;20115;-87
2021/06/04 07:40:31;;;;;;;18.75;15.32;;;21.10;94.50;;;;;;5069413;28;20066;-86
2021/06/04 07:43:00;;;;;;;17.80;13.90;;;21.20;94.50;;;;;;5053421;28;20056;-85
2021/06/04 07:45:31;;;;;;;16.88;13.68;;;21.30;94.70;;;;;;5036926;28;20048;-86
2021/06/04 07:47:58;;;;;;;18.33;15.65;;;21.30;94.80;;;;;;5070083;28;20115;-87
2021/06/04 07:50:24;;;;;;;20.48;17.38;;;21.40;94.80;;;;;;5060836;28;20452;-85
2021/06/04 07:52:49;;;;;;;18.75;15.40;;;21.50;94.20;;;;;;5065581;28;20071;-84
2021/06/04 07:55:17;;;;;;;20.80;16.05;;;21.50;94.00;;;;;;5036536;28;20043;-82
2021/06/04 07:57:42;;;;;;;22.15;18.38;;;21.50;93.80;;;;;;5070408;28;20024;-84
2021/06/04 08:00:16;;;;;;;24.10;19.30;;;21.50;93.40;;;;;;5069493;28;20527;-77
2021/06/04 08:02:41;;;;;;;22.30;17.48;;;21.60;93.50;;;;;;5068533;28;20024;-77
2021/06/04 08:05:08;;;;;;;20.77;16.55;;;21.60;93.00;;;;;;5069135;28;20495;-76
2021/06/04 08:07:34;;;;;;;19.60;16.85;;;21.60;93.30;;;;;;5059791;28;20476;-78
2021/06/04 08:09:59;;;;;;;20.85;16.63;;;21.70;93.30;;;;;;5039374;28;20063;-79
2021/06/04 08:12:31;;;;;;;20.38;16.13;;;21.70;93.00;;;;;;5061044;28;20052;-76
2021/06/04 08:14:59;;;;;;;21.42;16.33;;;21.80;92.60;;;;;;5068396;28;20024;-77
2021/06/04 08:17:26;;;;;;;21.00;17.58;;;21.80;91.90;;;;;;5074339;28;20479;-76
2021/06/04 08:19:52;;;;;;;21.35;16.30;;;21.90;91.70;;;;;;5072612;28;20013;-76
2021/06/04 08:22:19;;;;;;;19.75;15.43;;;22.00;92.20;;;;;;5074144;28;20044;-76
2021/06/04 08:24:44;;;;;;;19.63;15.98;;;22.10;92.70;;;;;;5063818;28;20025;-76
2021/06/04 08:27:14;;;;;;;19.40;16.13;;;22.20;93.00;;;;;;5065491;28;20048;-73
2021/06/04 08:29:40;;;;;;;20.40;17.23;;;22.30;93.00;;;;;;5069469;28;20372;-73
2021/06/04 08:32:06;;;;;;;21.05;16.27;;;22.40;92.70;;;;;;5074398;28;20020;-73
2021/06/04 08:34:32;;;;;;;21.08;16.50;;;22.40;92.50;;;;;;5074454;28;20029;-73
2021/06/04 08:37:00;;;;;;;21.42;17.25;;;22.50;92.60;;;;;;5066274;28;20049;-74
2021/06/04 08:39:33;;;;;;;19.90;16.73;;;22.50;92.50;;;;;;5073033;28;20099;-82
2021/06/04 08:42:22;;;;;;;21.88;16.50;;;22.60;92.40;;;;;;5077148;28;20047;-83
2021/06/04 08:45:15;;;;;;;21.52;16.40;;;22.70;92.30;;;;;;5089064;28;20086;-84
2021/06/04 08:47:45;;;;;;;22.02;18.40;;;22.80;92.40;;;;;;5068012;28;20456;-83
2021/06/04 08:50:26;;;;;;;20.88;17.48;;;22.80;92.10;;;;;;5068890;28;20024;-85
2021/06/04 08:53:07;;;;;;;19.42;16.70;;;22.90;91.80;;;;;;5072330;28;20028;-84
2021/06/04 08:55:44;;;;;;;21.35;17.05;;;22.90;91.60;;;;;;5069878;28;20028;-85
2021/06/04 08:58:36;;;;;;;19.00;16.60;;;22.90;91.40;;;;;;5070648;28;20457;-84
2021/06/04 09:01:11;;;;;;;20.52;16.58;;;22.90;91.50;;;;;;5064153;28;20456;-84
2021/06/04 09:04:02;;;;;;;18.73;16.70;;;23.00;91.70;;;;;;5073809;28;20023;-84
2021/06/04 09:06:49;;;;;;;22.40;17.77;;;23.10;91.70;;;;;;5072796;28;20032;-85
2021/06/04 09:09:40;;;;;;;20.38;17.38;;;23.20;91.40;;;;;;5072683;28;20028;-84
2021/06/04 09:12:10;;;;;;;;;;;23.30;91.40;;;;;;5082395;28;20393;-84
2021/06/04 09:14:35;;;;;;;19.20;14.30;;;23.30;91.30;;;;;;5089193;28;19908;-85
2021/06/04 09:17:06;;;;;;;20.65;15.82;;;23.40;91.50;;;;;;5084199;28;20392;-85
2021/06/04 09:19:55;;;;;;;20.15;17.13;;;23.50;91.50;;;;;;5072545;28;20028;-86
2021/06/04 09:22:23;;;;;;;20.67;15.98;;;23.50;91.10;;;;;;5069326;28;20107;-84
2021/06/04 09:24:50;;;;;;;22.33;17.67;;;23.60;91.00;;;;;;5053139;28;20450;-84
2021/06/04 09:27:35;;;;;;;19.83;17.52;;;23.60;90.20;;;;;;5054698;28;20489;-85
2021/06/04 09:30:09;;;;;;;19.73;16.75;;;23.60;90.10;;;;;;5073786;28;20020;-85
2021/06/04 09:32:35;;;;;;;22.65;18.02;;;23.70;90.40;;;;;;5072613;28;20040;-85
2021/06/04 09:35:14;;;;;;;19.52;16.13;;;23.70;90.00;;;;;;5072745;28;20060;-85
2021/06/04 09:37:41;;;;;;;20.10;16.30;;;23.80;90.00;;;;;;5073360;28;20395;-85
2021/06/04 09:40:19;;;;;;;19.13;15.70;;;23.90;90.10;;;;;;5073439;28;20021;-85
2021/06/04 09:42:55;;;;;;;18.05;15.25;;;23.90;90.10;;;;;;5073401;28;20032;-85
2021/06/04 09:45:52;;;;;;;18.48;14.68;;;24.00;90.00;;;;;;5071952;28;20396;-86
2021/06/04 09:48:42;;;;;;;16.88;13.70;;;24.10;90.00;;;;;;5055537;28;20099;-85
2021/06/04 09:51:30;;;;;;;18.38;15.40;;;24.10;89.30;;;;;;5071358;28;20021;-85
2021/06/04 09:54:14;;;;;;;15.98;13.95;;;24.20;88.60;;;;;;5072066;28;20016;-86
2021/06/04 09:56:39;;;;;;;16.08;12.02;;;24.20;88.60;;;;;;5088592;28;20090;-85
2021/06/04 09:59:11;;;;;;;13.27;11.32;;;24.20;89.20;;;;;;5071928;28;20033;-85
2021/06/04 10:01:50;;;;;;;16.50;13.68;;;24.30;89.10;;;;;;5071962;28;20032;-85
2021/06/04 10:04:31;;;;;;;17.83;14.43;;;24.30;88.40;;;;;;5071717;28;20370;-85
2021/06/04 10:07:04;;;;;;;16.27;13.80;;;24.30;88.00;;;;;;5073232;28;20074;-85
2021/06/04 10:09:45;;;;;;;16.23;12.45;;;24.40;87.80;;;;;;5072780;28;20020;-85
2021/06/04 10:13:22;;;;;;;15.43;12.45;;;24.40;87.90;;;;;;5068231;28;20033;-92
2021/06/04 10:15:50;;;;;;;12.93;10.80;;;24.50;87.50;;;;;;5074087;28;20090;-88
2021/06/04 10:18:35;;;;;;;14.73;11.90;;;24.50;87.90;;;;;;5068152;28;20048;-71
2021/06/04 10:21:15;;;;;;;12.57;9.73;;;24.60;87.90;;;;;;5070044;28;20021;-72
2021/06/04 10:23:47;;;;;;;12.27;9.80;;;24.70;88.00;;;;;;5065265;28;20020;-78
2021/06/04 10:26:36;;;;;;;14.18;11.45;;;24.80;88.10;;;;;;5060302;28;20040;-78
2021/06/04 10:29:07;;;;;;;13.95;10.95;;;24.90;85.00;;;;;;5048785;28;20049;-78
2021/06/04 10:31:54;;;;;;;11.25;9.95;;;24.90;86.40;;;;;;5071948;28;20027;-82
2021/06/04 10:34:22;;;;;;;9.20;8.27;;;25.00;86.20;;;;;;5072499;28;20017;-77
2021/06/04 10:36:55;;;;;;;12.40;9.68;;;25.10;86.20;;;;;;5071644;28;20029;-78
2021/06/04 10:39:41;;;;;;;10.27;8.82;;;25.10;86.00;;;;;;5069579;28;20420;-78
2021/06/04 10:42:56;;;;;;;9.75;8.10;;;25.20;85.80;;;;;;5067381;28;20101;-78
2021/06/04 10:45:34;;;;;;;12.50;10.43;;;25.30;86.20;;;;;;5069587;28;20075;-78
2021/06/04 10:48:29;;;;;;;11.40;9.23;;;25.40;85.60;;;;;;5070296;28;20020;-78
2021/06/04 10:51:15;;;;;;;10.70;8.70;;;25.50;85.40;;;;;;5071547;28;20017;-77
2021/06/04 10:54:05;;;;;;;9.82;7.72;;;25.60;85.00;;;;;;5070678;28;20380;-86
2021/06/04 10:56:47;;;;;;;12.65;9.05;;;25.60;85.40;;;;;;5072420;28;20056;-84
2021/06/04 10:59:29;;;;;;;12.43;9.00;;;25.80;85.30;;;;;;5071603;28;20376;-85
2021/06/04 11:02:16;;;;;;;11.32;9.48;;;25.80;84.80;;;;;;5074551;28;20024;-84
2021/06/04 11:05:14;;;;;;;10.80;8.93;;;26.00;84.70;;;;;;5074336;28;20036;-87
2021/06/04 11:07:50;;;;;;;10.30;9.07;;;26.00;83.80;;;;;;5070676;28;20504;-86
2021/06/04 11:10:22;;;;;;;10.50;9.13;;;26.10;83.70;;;;;;5053876;28;20021;-84
2021/06/04 11:13:11;;;;;;;11.02;9.15;;;26.20;83.50;;;;;;5070557;28;20029;-85
2021/06/04 11:16:15;;;;;;;8.95;6.43;;;26.20;83.20;;;;;;5071710;28;20035;-85
2021/06/04 11:18:46;;;;;;;8.30;6.63;;;26.30;81.90;;;;;;5060515;28;20052;-82
2021/06/04 11:21:33;;;;;;;8.13;6.93;;;26.30;81.10;;;;;;5070978;28;20024;-80
2021/06/04 11:24:17;;;;;;;9.43;7.18;;;26.40;81.20;;;;;;5071049;28;20023;-79
2021/06/04 11:26:54;;;;;;;10.50;6.80;;;26.50;80.70;;;;;;5068679;28;20070;-79
2021/06/04 11:29:27;;;;;;;10.27;6.78;;;26.50;80.90;;;;;;5070239;28;20032;-78
2021/06/04 11:32:15;;;;;;;8.23;7.35;;;26.60;81.00;;;;;;5071008;28;20020;-78
2021/06/04 11:35:09;;;;;;;7.55;6.20;;;26.60;79.80;;;;;;5061529;28;20029;-79
2021/06/04 11:37:58;;;;;;;8.05;6.50;;;26.70;79.60;;;;;;5071520;28;20055;-78
2021/06/04 11:40:33;;;;;;;9.45;7.22;;;26.70;79.60;;;;;;5060400;28;20024;-78
2021/06/04 11:43:16;;;;;;;8.10;7.25;;;26.80;79.40;;;;;;5070963;28;20024;-78
2021/06/04 11:45:45;;;;;;;10.77;8.23;;;26.80;79.70;;;;;;5065163;28;20032;-78
2021/06/04 11:48:26;;;;;;;10.30;8.88;;;26.90;79.00;;;;;;5053118;28;20039;-78
2021/06/04 11:51:17;;;;;;;10.10;9.10;;;26.90;78.40;;;;;;5064593;28;20039;-80
2021/06/04 11:53:43;;;;;;;11.27;8.35;;;26.90;76.40;;;;;;5070396;28;20036;-80
2021/06/04 11:56:31;;;;;;;8.95;8.05;;;26.90;78.30;;;;;;5070125;28;20082;-79
2021/06/04 11:58:57;;;;;;;8.63;7.57;;;26.90;78.40;;;;;;5070299;28;20032;-79
2021/06/04 12:01:22;;;;;;;9.82;7.57;;;27.00;78.60;;;;;;5071415;28;20024;-85
2021/06/04 12:04:06;;;;;;;10.07;7.43;;;27.00;78.80;;;;;;5052702;28;20043;-82
2021/06/04 12:06:48;;;;;;;8.55;7.65;;;27.00;79.60;;;;;;5070242;28;20036;-84
2021/06/04 12:09:39;;;;;;;10.18;7.65;;;27.00;78.10;;;;;;5069274;28;20103;-88
2021/06/04 12:12:19;;;;;;;9.38;7.30;;;27.10;77.10;;;;;;5064721;28;20067;-86
2021/06/04 12:15:08;;;;;;;8.35;7.07;;;27.10;76.90;;;;;;5060099;28;20027;-89
2021/06/04 12:17:35;;;;;;;9.18;8.18;;;27.10;76.90;;;;;;5070507;28;20163;-91
2021/06/04 12:20:20;;;;;;;11.38;9.02;;;27.10;77.20;;;;;;5057345;28;20258;-78
2021/06/04 12:23:02;;;;;;;9.77;8.48;;;27.10;78.00;;;;;;5065928;28;20024;-79
2021/06/04 12:25:49;;;;;;;10.27;8.60;;;27.10;78.10;;;;;;5069487;28;20029;-78
2021/06/04 12:28:17;;;;;;;22.15;9.25;;;27.10;77.80;;;;;;5070460;28;20049;-78
2021/06/04 12:30:59;;;;;;;155.32;139.20;;;27.10;77.90;;;;;;5069450;28;20052;-79
2021/06/04 12:33:47;;;;;;;68.40;61.50;;;27.20;77.80;;;;;;5070034;28;20028;-79
2021/06/04 12:36:43;;;;;;;28.23;25.27;;;27.20;76.80;;;;;;5070073;28;20115;-79
2021/06/04 12:39:21;;;;;;;15.85;14.23;;;27.30;77.90;;;;;;5066042;28;20063;-84
2021/06/04 12:42:18;;;;;;;12.55;10.10;;;27.30;77.80;;;;;;5069897;28;20060;-84
2021/06/04 12:45:02;;;;;;;9.75;8.18;;;27.40;77.60;;;;;;5074823;28;20024;-90
2021/06/04 12:51:00;;;;;;;8.35;6.90;;;27.40;76.10;;;;;;5053898;28;20029;-93
2021/06/04 12:53:58;;;;;;;7.82;6.93;;;27.40;75.70;;;;;;5060152;28;20060;-91
2021/06/04 12:56:34;;;;;;;6.30;5.45;;;27.50;76.20;;;;;;5053970;28;20157;-92
2021/06/04 12:59:07;;;;;;;7.72;6.47;;;27.50;76.90;;;;;;5081239;28;20020;-92
2021/06/04 13:01:50;;;;;;;9.00;6.30;;;27.60;77.00;;;;;;5075786;28;20027;-90
2021/06/04 13:04:24;;;;;;;10.20;7.90;;;27.70;76.40;;;;;;5058544;28;20029;-90
2021/06/04 13:06:52;;;;;;;9.05;7.68;;;27.70;75.00;;;;;;5070387;28;20040;-90